createdAt,value
2023-01-15T00:00:54.327Z,9.75
2023-01-15T00:01:54.289Z,9.80
2023-01-15T00:02:54.354Z,9.78
2023-01-15T00:03:54.305Z,9.77
2023-01-15T00:04:54.279Z,9.75
2023-01-15T00:05:54.267Z,9.78
2023-01-15T00:06:54.259Z,9.73
2023-01-15T00:07:54.221Z,9.77
2023-01-15T00:08:54.222Z,9.77
2023-01-15T00:09:54.207Z,9.81
2023-01-15T00:10:54.219Z,9.87
2023-01-15T00:11:54.185Z,9.81
2023-01-15T00:12:54.177Z,9.84
2023-01-15T00:13:54.162Z,9.84
2023-01-15T00:14:54.157Z,9.81
2023-01-15T00:15:54.231Z,9.84
2023-01-15T00:16:54.147Z,9.81
2023-01-15T00:17:54.118Z,9.78
2023-01-15T00:18:54.107Z,9.88
2023-01-15T00:19:54.095Z,9.91
2023-01-15T00:20:54.091Z,9.90
2023-01-15T00:21:54.276Z,9.85
2023-01-15T00:22:54.070Z,9.83
2023-01-15T00:23:54.072Z,9.90
2023-01-15T00:24:54.062Z,9.85
2023-01-15T00:25:54.036Z,9.80
2023-01-15T00:26:54.040Z,9.85
2023-01-15T00:27:54.017Z,9.78
2023-01-15T00:28:54.020Z,9.81
2023-01-15T00:29:54.001Z,9.91
2023-01-15T00:30:54.018Z,9.87
2023-01-15T00:31:53.963Z,9.81
2023-01-15T00:32:53.964Z,9.91
2023-01-15T00:33:53.971Z,9.90
2023-01-15T00:34:53.956Z,9.81
2023-01-15T00:35:53.916Z,9.88
2023-01-15T00:36:53.915Z,9.83
2023-01-15T00:37:53.921Z,9.81
2023-01-15T00:38:53.908Z,9.91
2023-01-15T00:39:53.889Z,9.93
2023-01-15T00:40:53.880Z,9.85
2023-01-15T00:41:53.855Z,9.90
2023-01-15T00:42:54.715Z,9.93
2023-01-15T00:43:53.861Z,9.90
2023-01-15T00:44:53.846Z,9.90
2023-01-15T00:45:53.809Z,9.91
2023-01-15T00:46:53.815Z,9.90
2023-01-15T00:47:53.787Z,9.84
2023-01-15T00:48:53.794Z,9.87
2023-01-15T00:49:53.789Z,9.98
2023-01-15T00:50:53.757Z,9.96
2023-01-15T00:51:53.743Z,9.93
2023-01-15T00:52:53.735Z,9.98
2023-01-15T00:53:53.732Z,9.91
2023-01-15T00:54:53.740Z,9.90
2023-01-15T00:55:53.702Z,9.98
2023-01-15T00:56:53.712Z,9.98
2023-01-15T00:57:53.675Z,9.94
2023-01-15T00:58:53.667Z,9.87
2023-01-15T00:59:53.678Z,9.99
2023-01-15T01:00:53.701Z,9.96
2023-01-15T01:01:53.817Z,9.99
2023-01-15T01:02:53.651Z,9.99
2023-01-15T01:03:53.610Z,9.98
2023-01-15T01:04:53.604Z,10.02
2023-01-15T01:05:53.595Z,9.96
2023-01-15T01:06:53.587Z,10.02
2023-01-15T01:07:53.593Z,9.96
2023-01-15T01:08:53.568Z,9.94
2023-01-15T01:09:53.563Z,9.99
2023-01-15T01:10:53.538Z,9.99
2023-01-15T01:11:53.546Z,9.99
2023-01-15T01:12:53.571Z,9.99
2023-01-15T01:13:53.505Z,10.06
2023-01-15T01:14:53.500Z,10.01
2023-01-15T01:15:53.528Z,10.01
2023-01-15T01:16:53.472Z,9.99
2023-01-15T01:17:53.491Z,9.98
2023-01-15T01:18:53.459Z,9.99
2023-01-15T01:19:53.446Z,10.01
2023-01-15T01:20:53.434Z,10.01
2023-01-15T01:21:53.421Z,9.98
2023-01-15T01:22:53.435Z,10.02
2023-01-15T01:23:53.398Z,10.02
2023-01-15T01:24:53.392Z,10.03
2023-01-15T01:25:53.370Z,10.02
2023-01-15T01:26:54.715Z,10.01
2023-01-15T01:27:53.373Z,10.02
2023-01-15T01:28:53.353Z,10.03
2023-01-15T01:29:53.336Z,10.01
2023-01-15T01:30:53.325Z,10.02
2023-01-15T01:31:53.321Z,10.02
2023-01-15T01:32:53.326Z,10.03
2023-01-15T01:33:53.291Z,10.06
2023-01-15T01:34:53.282Z,10.08
2023-01-15T01:35:53.274Z,10.03
2023-01-15T01:36:53.261Z,9.99
2023-01-15T01:37:53.274Z,9.99
2023-01-15T01:38:53.236Z,10.09
2023-01-15T01:39:53.232Z,10.02
2023-01-15T01:40:53.217Z,10.01
2023-01-15T01:41:53.206Z,10.09
2023-01-15T01:42:53.189Z,10.01
2023-01-15T01:43:53.208Z,10.10
2023-01-15T01:44:53.168Z,10.01
2023-01-15T01:45:53.240Z,10.01
2023-01-15T01:46:53.143Z,10.05
2023-01-15T01:47:53.144Z,10.09
2023-01-15T01:48:53.157Z,10.08
2023-01-15T01:49:53.116Z,10.09
2023-01-15T01:50:53.103Z,10.12
2023-01-15T01:51:53.099Z,10.12
2023-01-15T01:52:53.078Z,10.06
2023-01-15T01:53:53.086Z,10.02
2023-01-15T01:54:53.081Z,10.06
2023-01-15T01:55:53.054Z,10.02
2023-01-15T01:56:53.039Z,10.05
2023-01-15T01:57:53.030Z,10.08
2023-01-15T01:58:53.021Z,10.03
2023-01-15T01:59:53.035Z,10.10
2023-01-15T02:00:53.017Z,10.01
2023-01-15T02:01:53.129Z,10.09
2023-01-15T02:02:52.980Z,10.05
2023-01-15T02:03:52.966Z,10.09
2023-01-15T02:04:52.973Z,10.01
2023-01-15T02:05:52.948Z,10.08
2023-01-15T02:06:52.939Z,10.09
2023-01-15T02:07:52.917Z,10.03
2023-01-15T02:08:52.934Z,10.09
2023-01-15T02:09:52.923Z,10.01
2023-01-15T02:10:52.890Z,10.12
2023-01-15T02:11:52.881Z,10.08
2023-01-15T02:12:52.872Z,10.01
2023-01-15T02:13:52.854Z,10.03
2023-01-15T02:14:52.870Z,10.09
2023-01-15T02:15:52.832Z,10.08
2023-01-15T02:16:52.833Z,10.10
2023-01-15T02:17:52.813Z,10.12
2023-01-15T02:18:52.796Z,10.06
2023-01-15T02:19:52.804Z,10.08
2023-01-15T02:20:52.804Z,10.09
2023-01-15T02:21:52.765Z,10.12
2023-01-15T02:22:52.752Z,10.09
2023-01-15T02:23:52.753Z,10.08
2023-01-15T02:24:52.758Z,10.06
2023-01-15T02:25:52.727Z,10.09
2023-01-15T02:26:52.714Z,10.08
2023-01-15T02:27:52.702Z,10.08
2023-01-15T02:28:52.690Z,10.16
2023-01-15T02:29:52.717Z,10.10
2023-01-15T02:30:52.689Z,10.17
2023-01-15T02:31:52.723Z,10.16
2023-01-15T02:32:52.659Z,10.12
2023-01-15T02:33:52.660Z,10.09
2023-01-15T02:34:52.645Z,10.12
2023-01-15T02:35:52.620Z,10.09
2023-01-15T02:36:52.605Z,10.14
2023-01-15T02:37:52.620Z,10.17
2023-01-15T02:38:52.587Z,10.16
2023-01-15T02:39:52.606Z,10.14
2023-01-15T02:40:52.566Z,10.16
2023-01-15T02:41:52.563Z,10.16
2023-01-15T02:42:52.537Z,10.09
2023-01-15T02:43:52.556Z,10.14
2023-01-15T02:44:52.513Z,10.12
2023-01-15T02:45:52.557Z,10.12
2023-01-15T02:46:52.514Z,10.16
2023-01-15T02:47:52.488Z,10.18
2023-01-15T02:48:52.470Z,10.14
2023-01-15T02:49:52.459Z,10.09
2023-01-15T02:50:52.448Z,10.17
2023-01-15T02:51:52.445Z,10.09
2023-01-15T02:52:52.456Z,10.17
2023-01-15T02:53:52.424Z,10.12
2023-01-15T02:54:52.403Z,10.12
2023-01-15T02:55:52.404Z,10.09
2023-01-15T02:56:52.383Z,10.18
2023-01-15T02:57:52.399Z,10.17
2023-01-15T02:58:52.363Z,10.18
2023-01-15T02:59:52.371Z,10.18
2023-01-15T03:00:52.474Z,10.23
2023-01-15T03:01:52.538Z,10.10
2023-01-15T03:02:52.444Z,10.24
2023-01-15T03:03:52.318Z,10.24
2023-01-15T03:04:52.296Z,10.14
2023-01-15T03:05:52.287Z,10.26
2023-01-15T03:06:52.312Z,10.24
2023-01-15T03:07:52.315Z,10.24
2023-01-15T03:08:52.252Z,10.16
2023-01-15T03:09:52.244Z,10.16
2023-01-15T03:10:52.230Z,10.24
2023-01-15T03:11:52.246Z,10.24
2023-01-15T03:12:52.237Z,10.17
2023-01-15T03:13:52.196Z,10.16
2023-01-15T03:14:52.192Z,10.23
2023-01-15T03:15:52.185Z,10.23
2023-01-15T03:16:52.228Z,10.28
2023-01-15T03:17:52.186Z,10.16
2023-01-15T03:18:52.155Z,10.18
2023-01-15T03:19:52.137Z,10.28
2023-01-15T03:20:52.119Z,10.21
2023-01-15T03:21:52.113Z,10.18
2023-01-15T03:22:52.117Z,10.20
2023-01-15T03:23:52.096Z,10.21
2023-01-15T03:24:52.085Z,10.23
2023-01-15T03:25:52.080Z,10.23
2023-01-15T03:26:52.061Z,10.27
2023-01-15T03:27:52.071Z,10.23
2023-01-15T03:28:52.038Z,10.23
2023-01-15T03:29:52.022Z,10.26
2023-01-15T03:30:52.112Z,10.27
2023-01-15T03:31:52.002Z,10.23
2023-01-15T03:32:52.017Z,10.24
2023-01-15T03:33:51.981Z,10.26
2023-01-15T03:34:51.989Z,10.26
2023-01-15T03:35:51.963Z,10.24
2023-01-15T03:36:51.954Z,10.30
2023-01-15T03:37:51.957Z,10.21
2023-01-15T03:38:51.928Z,10.23
2023-01-15T03:39:51.942Z,10.24
2023-01-15T03:40:51.913Z,10.26
2023-01-15T03:41:51.903Z,10.20
2023-01-15T03:42:51.890Z,10.30
2023-01-15T03:43:51.897Z,10.21
2023-01-15T03:44:51.934Z,10.26
2023-01-15T03:45:51.875Z,10.24
2023-01-15T03:46:51.849Z,10.23
2023-01-15T03:47:51.837Z,10.26
2023-01-15T03:48:51.850Z,10.23
2023-01-15T03:49:51.807Z,10.28
2023-01-15T03:50:51.823Z,10.27
2023-01-15T03:51:51.797Z,10.28
2023-01-15T03:52:51.778Z,10.28
2023-01-15T03:53:51.875Z,10.26
2023-01-15T03:54:51.759Z,10.26
2023-01-15T03:55:51.770Z,10.30
2023-01-15T03:56:51.735Z,10.27
2023-01-15T03:57:51.745Z,10.26
2023-01-15T03:58:51.713Z,10.28
2023-01-15T03:59:51.697Z,10.35
2023-01-15T04:00:51.717Z,10.27
2023-01-15T04:01:51.789Z,10.27
2023-01-15T04:02:51.716Z,10.26
2023-01-15T04:03:51.680Z,10.27
2023-01-15T04:04:51.650Z,10.26
2023-01-15T04:05:51.649Z,10.30
2023-01-15T04:06:51.627Z,10.27
2023-01-15T04:07:51.640Z,10.34
2023-01-15T04:08:51.607Z,10.30
2023-01-15T04:09:51.590Z,10.35
2023-01-15T04:10:51.584Z,10.30
2023-01-15T04:11:51.577Z,10.24
2023-01-15T04:12:51.600Z,10.36
2023-01-15T04:13:51.557Z,10.31
2023-01-15T04:14:51.540Z,10.30
2023-01-15T04:15:51.545Z,10.34
2023-01-15T04:16:51.518Z,10.28
2023-01-15T04:17:51.531Z,10.30
2023-01-15T04:18:51.514Z,10.31
2023-01-15T04:19:51.487Z,10.28
2023-01-15T04:20:51.480Z,10.26
2023-01-15T04:21:51.461Z,10.31
2023-01-15T04:22:51.468Z,10.28
2023-01-15T04:23:51.476Z,10.38
2023-01-15T04:24:51.439Z,10.36
2023-01-15T04:25:51.419Z,10.28
2023-01-15T04:26:51.414Z,10.36
2023-01-15T04:27:51.398Z,10.31
2023-01-15T04:28:51.418Z,10.24
2023-01-15T04:29:51.378Z,10.27
2023-01-15T04:30:51.383Z,10.36
2023-01-15T04:31:51.355Z,10.28
2023-01-15T04:32:51.363Z,10.26
2023-01-15T04:33:51.335Z,10.26
2023-01-15T04:34:51.325Z,10.31
2023-01-15T04:35:51.325Z,10.28
2023-01-15T04:36:51.313Z,10.24
2023-01-15T04:37:51.316Z,10.24
2023-01-15T04:38:51.286Z,10.24
2023-01-15T04:39:51.266Z,10.23
2023-01-15T04:40:51.284Z,10.24
2023-01-15T04:41:51.250Z,10.26
2023-01-15T04:42:51.244Z,10.20
2023-01-15T04:43:51.253Z,10.26
2023-01-15T04:44:51.239Z,10.20
2023-01-15T04:45:51.275Z,10.24
2023-01-15T04:46:51.206Z,10.18
2023-01-15T04:47:51.179Z,10.23
2023-01-15T04:48:51.198Z,10.20
2023-01-15T04:49:51.171Z,10.12
2023-01-15T04:50:51.176Z,10.18
2023-01-15T04:51:51.151Z,10.17
2023-01-15T04:52:51.133Z,10.26
2023-01-15T04:53:51.135Z,10.10
2023-01-15T04:54:51.134Z,10.14
2023-01-15T04:55:51.100Z,10.12
2023-01-15T04:56:51.093Z,10.14
2023-01-15T04:57:51.073Z,10.09
2023-01-15T04:58:51.096Z,10.09
2023-01-15T04:59:51.081Z,10.08
2023-01-15T05:00:51.047Z,10.12
2023-01-15T05:02:03.182Z,10.09
2023-01-15T05:02:52.020Z,10.03
2023-01-15T05:03:51.015Z,10.05
2023-01-15T05:04:51.137Z,10.14
2023-01-15T05:05:50.994Z,10.12
2023-01-15T05:06:51.008Z,10.02
2023-01-15T05:07:50.960Z,10.09
2023-01-15T05:08:50.959Z,10.06
2023-01-15T05:09:50.946Z,10.08
2023-01-15T05:10:50.940Z,10.03
2023-01-15T05:11:50.920Z,10.06
2023-01-15T05:12:50.936Z,10.08
2023-01-15T05:13:50.899Z,9.98
2023-01-15T05:14:50.891Z,10.05
2023-01-15T05:15:50.918Z,10.05
2023-01-15T05:16:50.883Z,9.99
2023-01-15T05:17:50.876Z,9.99
2023-01-15T05:18:50.852Z,9.98
2023-01-15T05:19:50.832Z,9.99
2023-01-15T05:20:50.825Z,10.02
2023-01-15T05:21:50.809Z,10.03
2023-01-15T05:22:50.828Z,9.98
2023-01-15T05:23:50.815Z,9.87
2023-01-15T05:24:50.782Z,9.98
2023-01-15T05:25:50.771Z,9.85
2023-01-15T05:26:50.759Z,9.87
2023-01-15T05:27:50.771Z,9.85
2023-01-15T05:28:50.745Z,9.91
2023-01-15T05:29:50.750Z,9.87
2023-01-15T05:30:50.840Z,9.83
2023-01-15T05:31:50.707Z,9.81
2023-01-15T05:32:50.697Z,9.80
2023-01-15T05:33:50.683Z,9.80
2023-01-15T05:34:50.695Z,9.78
2023-01-15T05:35:50.661Z,9.87
2023-01-15T05:36:50.647Z,9.84
2023-01-15T05:37:50.637Z,9.78
2023-01-15T05:38:50.631Z,9.80
2023-01-15T05:39:50.644Z,9.77
2023-01-15T05:40:50.612Z,9.72
2023-01-15T05:41:50.869Z,9.72
2023-01-15T05:42:50.586Z,9.78
2023-01-15T05:43:50.596Z,9.78
2023-01-15T05:44:50.561Z,9.72
2023-01-15T05:45:50.552Z,9.73
2023-01-15T05:46:50.563Z,9.72
2023-01-15T05:47:50.528Z,9.66
2023-01-15T05:48:50.519Z,9.67
2023-01-15T05:49:50.531Z,9.59
2023-01-15T05:50:50.494Z,9.66
2023-01-15T05:51:50.525Z,9.62
2023-01-15T05:52:50.484Z,9.65
2023-01-15T05:53:50.470Z,9.60
2023-01-15T05:54:50.453Z,9.55
2023-01-15T05:55:50.446Z,9.59
2023-01-15T05:56:50.453Z,9.57
2023-01-15T05:57:50.419Z,9.54
2023-01-15T05:58:50.412Z,9.54
2023-01-15T05:59:50.425Z,9.59
2023-01-15T06:00:50.389Z,9.59
2023-01-15T06:01:50.384Z,9.45
2023-01-15T06:02:50.387Z,9.54
2023-01-15T06:03:50.408Z,9.55
2023-01-15T06:04:50.368Z,9.59
2023-01-15T06:05:50.333Z,9.52
2023-01-15T06:06:50.335Z,9.47
2023-01-15T06:07:50.316Z,9.48
2023-01-15T06:08:50.308Z,9.52
2023-01-15T06:09:50.350Z,9.51
2023-01-15T06:10:50.276Z,9.45
2023-01-15T06:11:50.271Z,9.42
2023-01-15T06:12:50.263Z,9.44
2023-01-15T06:13:50.248Z,9.44
2023-01-15T06:14:50.263Z,9.42
2023-01-15T06:15:50.304Z,9.48
2023-01-15T06:16:50.234Z,9.42
2023-01-15T06:17:50.224Z,9.42
2023-01-15T06:18:50.195Z,9.51
2023-01-15T06:19:50.185Z,9.45
2023-01-15T06:20:50.172Z,9.41
2023-01-15T06:21:50.181Z,9.44
2023-01-15T06:22:50.156Z,9.42
2023-01-15T06:23:50.158Z,9.50
2023-01-15T06:24:50.132Z,9.48
2023-01-15T06:25:50.119Z,9.41
2023-01-15T06:26:50.132Z,9.45
2023-01-15T06:27:50.101Z,9.42
2023-01-15T06:28:50.117Z,9.44
2023-01-15T06:29:50.093Z,9.33
2023-01-15T06:30:50.066Z,9.34
2023-01-15T06:31:50.241Z,9.47
2023-01-15T06:32:50.046Z,9.45
2023-01-15T06:33:50.058Z,9.36
2023-01-15T06:34:50.052Z,9.36
2023-01-15T06:35:50.032Z,9.41
2023-01-15T06:36:50.012Z,9.41
2023-01-15T06:37:49.992Z,9.36
2023-01-15T06:38:49.991Z,9.37
2023-01-15T06:39:49.994Z,9.36
2023-01-15T06:40:49.959Z,9.36
2023-01-15T06:41:49.950Z,9.33
2023-01-15T06:42:49.957Z,9.36
2023-01-15T06:43:49.923Z,9.32
2023-01-15T06:44:49.943Z,9.32
2023-01-15T06:45:49.900Z,9.41
2023-01-15T06:46:49.930Z,9.30
2023-01-15T06:47:49.880Z,9.24
2023-01-15T06:48:49.870Z,9.33
2023-01-15T06:49:49.886Z,9.30
2023-01-15T06:50:49.848Z,9.24
2023-01-15T06:51:49.835Z,9.36
2023-01-15T06:52:49.832Z,9.30
2023-01-15T06:53:49.843Z,9.24
2023-01-15T06:54:49.825Z,9.33
2023-01-15T06:55:49.819Z,9.33
2023-01-15T06:56:49.782Z,9.32
2023-01-15T06:57:49.779Z,9.32
2023-01-15T06:58:49.767Z,9.26
2023-01-15T06:59:49.755Z,9.29
2023-01-15T07:00:49.833Z,9.27
2023-01-15T07:01:49.851Z,9.33
2023-01-15T07:02:49.724Z,9.32
2023-01-15T07:03:49.754Z,9.36
2023-01-15T07:04:49.757Z,9.27
2023-01-15T07:05:49.692Z,9.29
2023-01-15T07:06:49.711Z,9.19
2023-01-15T07:07:49.682Z,9.29
2023-01-15T07:08:49.661Z,9.33
2023-01-15T07:09:49.678Z,9.27
2023-01-15T07:10:49.638Z,9.26
2023-01-15T07:11:49.939Z,9.23
2023-01-15T07:12:49.613Z,9.32
2023-01-15T07:13:49.605Z,9.19
2023-01-15T07:14:49.616Z,9.22
2023-01-15T07:15:49.579Z,9.16
2023-01-15T07:16:49.617Z,9.22
2023-01-15T07:17:49.568Z,9.22
2023-01-15T07:18:49.557Z,9.18
2023-01-15T07:19:49.546Z,9.19
2023-01-15T07:20:49.530Z,9.23
2023-01-15T07:21:49.517Z,9.14
2023-01-15T07:22:49.532Z,9.11
2023-01-15T07:23:49.495Z,9.19
2023-01-15T07:24:49.488Z,9.16
2023-01-15T07:25:49.512Z,9.16
2023-01-15T07:26:49.465Z,9.19
2023-01-15T07:27:49.479Z,9.15
2023-01-15T07:28:49.445Z,9.14
2023-01-15T07:29:49.448Z,9.14
2023-01-15T07:30:49.458Z,9.15
2023-01-15T07:31:49.406Z,9.11
2023-01-15T07:32:49.401Z,9.11
2023-01-15T07:33:49.406Z,9.08
2023-01-15T07:34:49.380Z,9.12
2023-01-15T07:35:49.388Z,9.15
2023-01-15T07:36:49.364Z,9.09
2023-01-15T07:37:49.344Z,9.09
2023-01-15T07:38:49.365Z,9.15
2023-01-15T07:39:49.327Z,9.15
2023-01-15T07:40:49.314Z,9.09
2023-01-15T07:41:49.306Z,9.09
2023-01-15T07:42:49.293Z,9.06
2023-01-15T07:43:49.283Z,9.14
2023-01-15T07:44:49.287Z,9.11
2023-01-15T07:45:49.278Z,9.09
2023-01-15T07:46:49.245Z,9.06
2023-01-15T07:47:49.240Z,9.11
2023-01-15T07:48:49.230Z,9.11
2023-01-15T07:49:49.257Z,9.04
2023-01-15T07:50:49.206Z,9.08
2023-01-15T07:51:49.201Z,9.11
2023-01-15T07:52:50.823Z,9.09
2023-01-15T07:53:49.216Z,9.08
2023-01-15T07:54:49.160Z,8.99
2023-01-15T07:55:49.150Z,9.04
2023-01-15T07:56:49.139Z,9.04
2023-01-15T07:57:49.152Z,9.01
2023-01-15T07:58:49.161Z,9.09
2023-01-15T07:59:49.161Z,9.04
2023-01-15T08:00:49.125Z,9.09
2023-01-15T08:01:49.254Z,9.03
2023-01-15T08:02:49.073Z,9.04
2023-01-15T08:03:49.115Z,8.98
2023-01-15T08:04:49.073Z,8.98
2023-01-15T08:05:49.043Z,8.96
2023-01-15T08:06:49.030Z,8.99
2023-01-15T08:07:49.057Z,8.89
2023-01-15T08:08:49.034Z,8.95
2023-01-15T08:09:49.007Z,8.90
2023-01-15T08:10:48.988Z,9.01
2023-01-15T08:11:48.990Z,9.03
2023-01-15T08:12:48.967Z,8.92
2023-01-15T08:13:48.983Z,8.95
2023-01-15T08:14:48.946Z,9.03
2023-01-15T08:15:48.938Z,8.92
2023-01-15T08:16:48.928Z,8.95
2023-01-15T08:17:48.917Z,8.89
2023-01-15T08:18:48.921Z,8.86
2023-01-15T08:19:48.895Z,8.88
2023-01-15T08:20:48.879Z,8.90
2023-01-15T08:21:48.875Z,8.92
2023-01-15T08:22:48.880Z,8.89
2023-01-15T08:23:48.856Z,8.86
2023-01-15T08:24:48.868Z,8.92
2023-01-15T08:25:48.841Z,8.85
2023-01-15T08:26:48.819Z,8.90
2023-01-15T08:27:48.852Z,8.95
2023-01-15T08:28:48.801Z,8.86
2023-01-15T08:29:48.785Z,8.88
2023-01-15T08:30:48.810Z,8.90
2023-01-15T08:31:48.802Z,8.90
2023-01-15T08:32:48.779Z,8.93
2023-01-15T08:33:48.742Z,8.85
2023-01-15T08:34:48.734Z,8.92
2023-01-15T08:35:48.724Z,8.86
2023-01-15T08:36:48.709Z,8.90
2023-01-15T08:37:48.719Z,8.96
2023-01-15T08:38:48.707Z,8.88
2023-01-15T08:39:48.682Z,8.89
2023-01-15T08:40:48.676Z,8.92
2023-01-15T08:41:48.659Z,8.89
2023-01-15T08:42:48.660Z,8.93
2023-01-15T08:43:48.663Z,8.96
2023-01-15T08:44:48.626Z,8.89
2023-01-15T08:45:48.643Z,8.86
2023-01-15T08:46:48.607Z,8.83
2023-01-15T08:47:48.589Z,8.93
2023-01-15T08:48:48.596Z,8.85
2023-01-15T08:49:48.571Z,8.90
2023-01-15T08:50:48.584Z,8.88
2023-01-15T08:51:48.550Z,8.93
2023-01-15T08:52:48.543Z,8.88
2023-01-15T08:53:48.533Z,8.93
2023-01-15T08:54:48.517Z,8.90
2023-01-15T08:55:48.539Z,8.89
2023-01-15T08:56:48.491Z,8.90
2023-01-15T08:57:48.486Z,8.96
2023-01-15T08:58:48.590Z,8.95
2023-01-15T08:59:48.465Z,8.96
2023-01-15T09:00:48.522Z,8.96
2023-01-15T09:01:48.572Z,8.86
2023-01-15T09:02:50.161Z,8.90
2023-01-15T09:03:48.429Z,8.90
2023-01-15T09:04:48.500Z,8.92
2023-01-15T09:05:48.409Z,8.85
2023-01-15T09:06:48.394Z,8.92
2023-01-15T09:07:48.387Z,8.90
2023-01-15T09:08:48.383Z,8.83
2023-01-15T09:09:48.392Z,8.95
2023-01-15T09:10:48.363Z,8.95
2023-01-15T09:11:48.352Z,8.92
2023-01-15T09:12:48.326Z,8.86
2023-01-15T09:13:48.327Z,8.90
2023-01-15T09:14:56.732Z,8.99
2023-01-15T09:15:49.295Z,8.90
2023-01-15T09:16:48.354Z,8.93
2023-01-15T09:17:48.280Z,8.89
2023-01-15T09:18:48.268Z,8.92
2023-01-15T09:19:48.286Z,8.85
2023-01-15T09:20:48.233Z,8.92
2023-01-15T09:21:48.254Z,8.93
2023-01-15T09:22:48.221Z,8.93
2023-01-15T09:23:48.211Z,8.92
2023-01-15T09:24:48.222Z,8.95
2023-01-15T09:25:48.189Z,8.93
2023-01-15T09:26:48.188Z,8.99
2023-01-15T09:27:48.166Z,8.92
2023-01-15T09:28:48.145Z,8.89
2023-01-15T09:29:48.141Z,8.93
2023-01-15T09:30:48.225Z,8.93
2023-01-15T09:31:48.145Z,8.88
2023-01-15T09:32:48.104Z,8.95
2023-01-15T09:33:48.119Z,8.89
2023-01-15T09:34:48.083Z,8.95
2023-01-15T09:35:48.073Z,8.89
2023-01-15T09:36:48.062Z,8.98
2023-01-15T09:37:48.059Z,8.93
2023-01-15T09:38:48.063Z,8.95
2023-01-15T09:39:48.049Z,8.93
2023-01-15T09:40:48.045Z,8.93
2023-01-15T09:41:48.011Z,8.98
2023-01-15T09:42:47.999Z,8.90
2023-01-15T09:43:51.182Z,8.90
2023-01-15T09:44:47.976Z,9.03
2023-01-15T09:45:48.091Z,8.99
2023-01-15T09:46:47.953Z,9.04
2023-01-15T09:47:47.967Z,8.99
2023-01-15T09:48:47.963Z,8.96
2023-01-15T09:49:47.926Z,9.04
2023-01-15T09:50:47.917Z,9.03
2023-01-15T09:51:47.925Z,8.99
2023-01-15T09:52:47.917Z,9.04
2023-01-15T09:53:47.886Z,8.98
2023-01-15T09:54:47.869Z,8.99
2023-01-15T09:55:47.860Z,9.04
2023-01-15T09:56:47.856Z,8.98
2023-01-15T09:57:47.863Z,8.98
2023-01-15T09:58:47.846Z,9.04
2023-01-15T09:59:47.820Z,8.99
2023-01-15T10:00:47.849Z,9.08
2023-01-15T10:01:47.797Z,9.06
2023-01-15T10:02:47.791Z,9.03
2023-01-15T10:03:47.844Z,9.06
2023-01-15T10:04:47.764Z,9.03
2023-01-15T10:05:47.759Z,9.09
2023-01-15T10:06:47.770Z,9.09
2023-01-15T10:07:47.729Z,9.09
2023-01-15T10:08:47.718Z,9.11
2023-01-15T10:09:47.717Z,9.08
2023-01-15T10:10:47.715Z,9.12
2023-01-15T10:11:47.688Z,9.15
2023-01-15T10:12:47.693Z,9.08
2023-01-15T10:13:47.689Z,9.09
2023-01-15T10:14:47.662Z,9.09
2023-01-15T10:15:47.679Z,9.12
2023-01-15T10:16:47.632Z,9.11
2023-01-15T10:17:48.733Z,9.06
2023-01-15T10:18:47.615Z,9.09
2023-01-15T10:19:47.630Z,9.09
2023-01-15T10:20:47.618Z,9.15
2023-01-15T10:21:47.589Z,9.11
2023-01-15T10:22:47.575Z,9.09
2023-01-15T10:23:47.570Z,9.11
2023-01-15T10:24:47.547Z,9.11
2023-01-15T10:25:47.541Z,9.11
2023-01-15T10:26:47.553Z,9.16
2023-01-15T10:27:47.514Z,9.12
2023-01-15T10:28:47.614Z,9.14
2023-01-15T10:29:47.496Z,9.18
2023-01-15T10:30:47.494Z,9.19
2023-01-15T10:31:47.501Z,9.22
2023-01-15T10:33:01.057Z,9.18
2023-01-15T10:33:48.452Z,9.11
2023-01-15T10:34:47.438Z,9.12
2023-01-15T10:35:47.433Z,9.16
2023-01-15T10:36:47.442Z,9.22
2023-01-15T10:37:47.416Z,9.16
2023-01-15T10:38:47.421Z,9.15
2023-01-15T10:39:47.391Z,9.22
2023-01-15T10:40:47.375Z,9.15
2023-01-15T10:41:47.388Z,9.22
2023-01-15T10:42:47.379Z,9.26
2023-01-15T10:43:47.364Z,9.34
2023-01-15T10:44:47.337Z,9.19
2023-01-15T10:45:47.364Z,9.26
2023-01-15T10:46:47.316Z,9.30
2023-01-15T10:47:47.327Z,9.29
2023-01-15T10:48:47.292Z,9.24
2023-01-15T10:49:47.282Z,9.29
2023-01-15T10:50:47.266Z,9.33
2023-01-15T10:51:47.261Z,9.26
2023-01-15T10:52:47.280Z,9.30
2023-01-15T10:53:47.240Z,9.32
2023-01-15T10:54:47.226Z,9.32
2023-01-15T10:55:47.222Z,9.29
2023-01-15T10:56:47.208Z,9.27
2023-01-15T10:57:47.219Z,9.34
2023-01-15T10:58:47.181Z,9.26
2023-01-15T10:59:47.170Z,9.30
2023-01-15T11:00:47.173Z,9.34
2023-01-15T11:01:47.234Z,9.29
2023-01-15T11:02:47.234Z,9.33
2023-01-15T11:03:47.131Z,9.33
2023-01-15T11:04:47.136Z,9.22
2023-01-15T11:05:47.146Z,9.32
2023-01-15T11:06:47.093Z,9.36
2023-01-15T11:08:12.955Z,9.27
2023-01-15T11:09:08.646Z,9.24
2023-01-15T11:09:48.071Z,9.36
2023-01-15T11:10:47.054Z,9.27
2023-01-15T11:11:47.043Z,9.34
2023-01-15T11:12:47.039Z,9.33
2023-01-15T11:13:47.055Z,9.34
2023-01-15T11:14:47.007Z,9.34
2023-01-15T11:15:47.026Z,9.32
2023-01-15T11:16:46.985Z,9.34
2023-01-15T11:17:46.977Z,9.34
2023-01-15T11:18:46.989Z,9.41
2023-01-15T11:19:46.966Z,9.40
2023-01-15T11:20:46.948Z,9.36
2023-01-15T11:21:46.939Z,9.33
2023-01-15T11:22:46.922Z,9.36
2023-01-15T11:23:46.937Z,9.40
2023-01-15T11:24:46.900Z,9.37
2023-01-15T11:25:46.916Z,9.36
2023-01-15T11:26:46.880Z,9.37
2023-01-15T11:27:46.875Z,9.41
2023-01-15T11:28:46.857Z,9.40
2023-01-15T11:29:46.853Z,9.40
2023-01-15T11:30:46.923Z,9.40
2023-01-15T11:31:46.845Z,9.40
2023-01-15T11:32:46.817Z,9.34
2023-01-15T11:33:46.817Z,9.47
2023-01-15T11:34:46.794Z,9.41
2023-01-15T11:35:46.813Z,9.47
2023-01-15T11:36:46.770Z,9.42
2023-01-15T11:37:46.759Z,9.44
2023-01-15T11:38:46.745Z,9.40
2023-01-15T11:39:46.741Z,9.44
2023-01-15T11:40:48.768Z,9.36
2023-01-15T11:41:46.721Z,9.47
2023-01-15T11:42:46.702Z,9.44
2023-01-15T11:43:46.699Z,9.44
2023-01-15T11:44:46.681Z,9.37
2023-01-15T11:45:46.700Z,9.42
2023-01-15T11:46:46.785Z,9.41
2023-01-15T11:47:46.671Z,9.45
2023-01-15T11:48:46.638Z,9.41
2023-01-15T11:49:46.638Z,9.44
2023-01-15T11:50:46.648Z,9.33
2023-01-15T11:51:46.610Z,9.40
2023-01-15T11:52:46.604Z,9.37
2023-01-15T11:53:46.611Z,9.47
2023-01-15T11:54:46.584Z,9.48
2023-01-15T11:55:46.583Z,9.44
2023-01-15T11:56:46.591Z,9.42
2023-01-15T11:57:46.541Z,9.42
2023-01-15T11:58:46.551Z,9.44
2023-01-15T11:59:46.520Z,9.45
2023-01-15T12:00:46.514Z,9.45
2023-01-15T12:01:46.520Z,9.40
2023-01-15T12:02:46.511Z,9.42
2023-01-15T12:03:46.714Z,9.42
2023-01-15T12:04:46.538Z,9.50
2023-01-15T12:05:46.454Z,9.42
2023-01-15T12:06:46.448Z,9.48
2023-01-15T12:07:46.444Z,9.41
2023-01-15T12:08:46.429Z,9.45
2023-01-15T12:09:46.427Z,9.47
2023-01-15T12:10:46.400Z,9.42
2023-01-15T12:11:46.391Z,9.48
2023-01-15T12:12:46.384Z,9.47
2023-01-15T12:13:46.390Z,9.48
2023-01-15T12:14:46.359Z,9.47
2023-01-15T12:15:46.398Z,9.42
2023-01-15T12:16:46.342Z,9.45
2023-01-15T12:17:46.324Z,9.51
2023-01-15T12:18:46.345Z,9.50
2023-01-15T12:19:46.312Z,9.52
2023-01-15T12:20:46.295Z,9.50
2023-01-15T12:21:46.294Z,9.48
2023-01-15T12:22:46.270Z,9.55
2023-01-15T12:23:46.259Z,9.45
2023-01-15T12:24:46.268Z,9.41
2023-01-15T12:25:46.237Z,9.41
2023-01-15T12:26:46.235Z,9.42
2023-01-15T12:27:46.215Z,9.45
2023-01-15T12:28:46.223Z,9.51
2023-01-15T12:29:46.249Z,9.42
2023-01-15T12:30:46.183Z,9.44
2023-01-15T12:31:46.195Z,9.51
2023-01-15T12:32:46.173Z,9.55
2023-01-15T12:33:46.153Z,9.59
2023-01-15T12:34:46.182Z,9.59
2023-01-15T12:35:46.148Z,9.54
2023-01-15T12:37:46.116Z,9.60
2023-01-15T12:38:46.100Z,9.55
2023-01-15T12:39:46.108Z,9.60
2023-01-15T12:40:46.077Z,9.54
2023-01-15T12:41:46.063Z,9.52
2023-01-15T12:42:46.061Z,9.60
2023-01-15T12:43:46.132Z,9.60
2023-01-15T12:44:46.065Z,9.63
2023-01-15T12:45:46.061Z,9.67
2023-01-15T12:46:46.148Z,9.66
2023-01-15T12:47:46.007Z,9.67
2023-01-15T12:48:45.995Z,9.65
2023-01-15T12:49:45.978Z,9.70
2023-01-15T12:50:45.978Z,9.75
2023-01-15T12:51:45.977Z,9.75
2023-01-15T12:52:45.951Z,9.65
2023-01-15T12:53:45.936Z,9.70
2023-01-15T12:54:45.945Z,9.63
2023-01-15T12:55:45.914Z,9.67
2023-01-15T12:56:45.916Z,9.67
2023-01-15T12:57:45.914Z,9.67
2023-01-15T12:58:45.884Z,9.66
2023-01-15T12:59:45.868Z,9.65
2023-01-15T13:00:45.894Z,9.63
2023-01-15T13:01:46.067Z,9.69
2023-01-15T13:02:45.862Z,9.65
2023-01-15T13:03:45.830Z,9.72
2023-01-15T13:04:45.858Z,9.67
2023-01-15T13:05:45.805Z,9.70
2023-01-15T13:06:45.805Z,9.72
2023-01-15T13:07:45.793Z,9.65
2023-01-15T13:08:45.787Z,9.63
2023-01-15T13:09:45.795Z,9.66
2023-01-15T13:10:45.758Z,9.72
2023-01-15T13:11:45.742Z,9.67